Time;durP1;ratioP1;P1;durP2;ratioP2;P2;SDS_P1;SDS_P2;PMS_P1;PMS_P2;Temp;Humidity;BMP_temperature;BMP_pressure;BME280_temperature;BME280_humidity;BME280_pressure;Samples;Min_cycle;Max_cycle;Signal;HPM_P1;HPM_P2
2022/10/20 00:01:53;;;;;;;10.32;4.57;;;8.50;99.90;;;;;;4954867;29;20078;-68
2022/10/20 00:04:19;;;;;;;8.98;4.57;;;8.40;99.90;;;;;;4937689;29;20082;-68
2022/10/20 00:06:44;;;;;;;11.05;4.20;;;8.20;99.90;;;;;;4937470;29;20046;-68
2022/10/20 00:09:10;;;;;;;10.18;4.97;;;8.20;99.90;;;;;;4937659;29;20482;-68
2022/10/20 00:11:36;;;;;;;8.45;5.10;;;8.40;99.90;;;;;;4954630;29;20170;-68
2022/10/20 00:14:02;;;;;;;6.22;3.83;;;;;;;;;;4954874;29;20139;-68
2022/10/20 00:16:29;;;;;;;11.05;4.72;;;8.40;99.90;;;;;;4954708;29;20039;-68
2022/10/20 00:18:56;;;;;;;10.15;4.53;;;8.40;99.90;;;;;;4937653;29;20047;-68
2022/10/20 00:21:25;;;;;;;11.25;4.88;;;8.10;99.90;;;;;;4937211;29;20046;-67
2022/10/20 00:23:51;;;;;;;6.07;4.22;;;8.20;99.90;;;;;;4937174;29;20145;-67
2022/10/20 00:26:23;;;;;;;7.28;4.20;;;8.20;99.90;;;;;;4954740;29;20047;-68
2022/10/20 00:28:49;;;;;;;10.95;4.57;;;8.00;99.90;;;;;;4937500;29;20482;-68
2022/10/20 00:31:16;;;;;;;11.23;5.18;;;8.10;99.90;;;;;;4954405;29;20043;-67
2022/10/20 00:33:42;;;;;;;13.93;4.82;;;8.00;99.90;;;;;;4954290;29;20410;-68
2022/10/20 00:36:11;;;;;;;13.35;5.03;;;8.00;99.90;;;;;;4954317;29;20039;-68
2022/10/20 00:38:37;;;;;;;10.50;4.78;;;8.10;99.90;;;;;;4954297;28;20490;-68
2022/10/20 00:41:03;;;;;;;8.60;4.82;;;8.00;99.90;;;;;;4937062;29;20110;-69
2022/10/20 00:43:49;;;;;;;12.55;4.80;;;8.20;99.90;;;;;;4937196;29;20486;-67
2022/10/20 00:46:25;;;;;;;7.25;4.90;;;7.90;99.90;;;;;;4925121;29;20126;-67
2022/10/20 00:48:56;;;;;;;7.65;4.93;;;7.80;99.90;;;;;;4954408;29;20114;-67
2022/10/20 00:51:25;;;;;;;6.45;4.82;;;7.90;99.90;;;;;;4937094;29;20047;-68
2022/10/20 00:53:54;;;;;;;11.48;4.53;;;7.90;99.90;;;;;;4936747;28;20043;-69
2022/10/20 00:56:21;;;;;;;9.23;4.30;;;7.90;99.90;;;;;;4929237;29;20054;-68
2022/10/20 00:58:47;;;;;;;9.88;4.65;;;7.80;99.90;;;;;;4937115;29;20058;-68
2022/10/20 01:01:13;;;;;;;9.15;4.93;;;8.10;99.90;;;;;;4936768;29;20572;-67
2022/10/20 01:03:45;;;;;;;9.20;4.35;;;7.80;99.90;;;;;;4921367;29;20135;-68
2022/10/20 01:06:12;;;;;;;7.72;4.22;;;8.00;99.90;;;;;;4954484;29;20035;-68
2022/10/20 01:08:38;;;;;;;7.53;4.15;;;7.70;99.90;;;;;;4936943;29;20166;-68
2022/10/20 01:11:15;;;;;;;7.07;4.43;;;8.00;99.90;;;;;;4954485;28;20087;-68
2022/10/20 01:14:09;;;;;;;13.82;5.13;;;8.00;99.90;;;;;;4940190;29;20039;-67
2022/10/20 01:16:57;;;;;;;8.80;4.22;;;7.80;99.90;;;;;;4940314;29;20043;-68
2022/10/20 01:19:39;;;;;;;8.32;4.55;;;7.90;99.90;;;;;;4940325;29;20039;-68
2022/10/20 01:22:29;;;;;;;10.60;4.28;;;7.60;99.90;;;;;;4957272;29;20047;-67
2022/10/20 01:25:07;;;;;;;9.50;5.22;;;7.50;99.90;;;;;;4940394;29;20122;-68
2022/10/20 01:27:41;;;;;;;13.82;5.57;;;7.70;99.90;;;;;;4928168;29;20050;-67
2022/10/20 01:30:21;;;;;;;6.28;3.90;;;7.90;99.90;;;;;;4940361;29;20051;-68
2022/10/20 01:32:53;;;;;;;7.45;4.95;;;7.90;99.90;;;;;;4957034;29;20043;-68
2022/10/20 01:35:27;;;;;;;7.35;4.68;;;7.60;99.90;;;;;;4957485;29;20039;-67
2022/10/20 01:37:55;;;;;;;6.57;4.47;;;7.70;99.90;;;;;;4940064;29;20147;-68
2022/10/20 01:40:29;;;;;;;9.63;4.88;;;7.70;99.90;;;;;;4939683;29;20043;-68
2022/10/20 01:42:56;;;;;;;6.22;4.07;;;;;;;;;;4956838;29;20047;-68
2022/10/20 01:45:26;;;;;;;6.43;4.18;;;7.70;99.90;;;;;;4956920;29;20397;-67
2022/10/20 01:47:52;;;;;;;10.93;5.00;;;7.60;99.90;;;;;;4957258;29;21267;-68
2022/10/20 01:50:19;;;;;;;10.32;5.05;;;7.50;99.90;;;;;;4956955;29;20482;-68
2022/10/20 01:52:45;;;;;;;7.95;3.95;;;7.50;99.90;;;;;;4956531;29;20039;-68
2022/10/20 01:55:14;;;;;;;6.45;4.47;;;7.50;99.90;;;;;;4939455;29;20078;-67
2022/10/20 01:58:17;;;;;;;10.75;5.30;;;7.40;99.90;;;;;;4939471;29;20043;-68
2022/10/20 02:00:44;;;;;;;8.60;5.22;;;7.40;99.90;;;;;;4947928;29;20086;-68
2022/10/20 02:03:31;;;;;;;9.18;4.90;;;7.40;99.90;;;;;;4956421;29;20540;-67
2022/10/20 02:06:03;;;;;;;8.50;4.47;;;;;;;;;;4939352;29;20050;-67
2022/10/20 02:08:36;;;;;;;10.95;5.03;;;7.30;99.90;;;;;;4956501;29;20121;-68
2022/10/20 02:11:04;;;;;;;12.43;5.35;;;7.30;99.90;;;;;;4939528;29;20134;-68
2022/10/20 02:13:31;;;;;;;7.38;4.80;;;7.40;99.90;;;;;;4939183;29;20106;-67
2022/10/20 02:16:00;;;;;;;9.40;5.15;;;7.40;99.90;;;;;;4939252;29;20494;-68
2022/10/20 02:18:34;;;;;;;8.02;4.63;;;7.30;99.90;;;;;;4939069;29;20039;-67
2022/10/20 02:21:02;;;;;;;10.68;4.65;;;7.10;99.90;;;;;;4939510;29;20500;-67
2022/10/20 02:23:32;;;;;;;7.65;4.78;;;7.10;99.90;;;;;;4938917;29;20409;-67
2022/10/20 02:25:59;;;;;;;9.02;5.07;;;7.00;99.90;;;;;;4955803;29;20043;-67
2022/10/20 02:28:27;;;;;;;8.18;4.25;;;7.40;99.90;;;;;;4938764;29;20045;-67
2022/10/20 02:30:54;;;;;;;8.50;4.75;;;7.10;99.90;;;;;;4956345;29;20043;-67
2022/10/20 02:33:21;;;;;;;7.63;4.60;;;7.00;99.90;;;;;;4938398;29;20094;-67
2022/10/20 02:35:56;;;;;;;11.98;5.05;;;7.10;99.90;;;;;;4922968;29;20075;-67
2022/10/20 02:38:22;;;;;;;8.93;5.50;;;7.00;99.90;;;;;;4956139;29;20126;-67
2022/10/20 02:40:48;;;;;;;12.07;4.85;;;6.90;99.90;;;;;;4955837;29;20135;-67
2022/10/20 02:43:13;;;;;;;9.80;5.32;;;6.90;99.90;;;;;;4956130;29;20036;-67
2022/10/20 02:45:39;;;;;;;7.30;4.50;;;;;;;;;;4955727;29;20035;-67
2022/10/20 02:48:07;;;;;;;9.98;4.97;;;6.80;99.90;;;;;;4938698;29;20039;-68
2022/10/20 02:50:32;;;;;;;8.68;4.43;;;7.00;99.90;;;;;;4956127;29;20102;-68
2022/10/20 02:52:58;;;;;;;6.35;4.78;;;6.90;99.90;;;;;;4938447;29;20043;-67
2022/10/20 02:55:23;;;;;;;7.03;4.95;;;6.90;99.90;;;;;;4955703;29;20509;-68
2022/10/20 02:57:50;;;;;;;7.85;4.93;;;7.00;99.90;;;;;;4955783;29;20374;-67
2022/10/20 03:00:16;;;;;;;6.15;4.60;;;;;;;;;;4955576;29;20047;-67
2022/10/20 03:02:41;;;;;;;12.93;6.57;;;6.80;99.90;;;;;;4938282;29;20401;-67
2022/10/20 03:05:07;;;;;;;8.82;5.38;;;6.90;99.90;;;;;;4955675;29;20035;-67
2022/10/20 03:07:33;;;;;;;10.90;4.88;;;7.00;99.90;;;;;;4955663;29;20031;-67
2022/10/20 03:09:58;;;;;;;8.77;4.95;;;7.10;99.90;;;;;;4938501;29;20151;-67
2022/10/20 03:12:24;;;;;;;9.75;5.40;;;6.90;99.90;;;;;;4955514;29;20498;-68
2022/10/20 03:14:49;;;;;;;8.55;5.25;;;7.10;99.90;;;;;;4955486;29;20042;-67
2022/10/20 03:17:15;;;;;;;6.60;4.30;;;7.00;99.90;;;;;;4955321;29;20126;-67
2022/10/20 03:19:40;;;;;;;9.27;5.32;;;7.10;99.90;;;;;;4938072;29;20047;-68
2022/10/20 03:22:06;;;;;;;7.18;4.97;;;6.90;99.90;;;;;;4937998;29;20046;-67
2022/10/20 03:24:31;;;;;;;9.45;5.28;;;7.00;99.90;;;;;;4955312;29;20050;-67
2022/10/20 03:26:57;;;;;;;8.02;5.47;;;;;;;;;;4955259;29;20042;-67
2022/10/20 03:29:23;;;;;;;11.25;5.97;;;7.10;99.90;;;;;;4955126;29;20035;-68
2022/10/20 03:31:49;;;;;;;7.78;5.40;;;7.10;99.90;;;;;;4954790;29;20397;-67
2022/10/20 03:34:14;;;;;;;11.10;6.13;;;;;;;;;;4937406;29;20573;-67
2022/10/20 03:36:41;;;;;;;10.55;6.15;;;;;;;;;;4955104;29;20043;-67
2022/10/20 03:39:06;;;;;;;8.95;5.20;;;7.20;99.90;;;;;;4955022;29;20035;-68
2022/10/20 03:41:32;;;;;;;6.90;5.90;;;7.20;99.90;;;;;;4937833;29;20047;-68
2022/10/20 03:43:57;;;;;;;10.50;5.70;;;7.20;99.90;;;;;;4937814;29;20098;-67
2022/10/20 03:46:23;;;;;;;11.38;5.95;;;7.30;99.90;;;;;;4955124;29;20090;-67
2022/10/20 03:48:48;;;;;;;10.82;6.20;;;7.20;99.90;;;;;;4937710;29;20122;-67
2022/10/20 03:51:14;;;;;;;9.10;5.85;;;;;;;;;;4937992;29;20122;-67
2022/10/20 03:53:40;;;;;;;8.43;6.13;;;7.20;99.90;;;;;;4937676;29;20050;-68
2022/10/20 03:56:07;;;;;;;14.93;6.82;;;7.20;99.90;;;;;;4954578;29;20050;-68
2022/10/20 03:58:33;;;;;;;10.90;6.00;;;7.20;99.90;;;;;;4937615;29;20075;-67
2022/10/20 04:00:59;;;;;;;10.75;5.95;;;;;;;;;;4954576;29;20035;-67
2022/10/20 04:03:24;;;;;;;11.38;6.50;;;7.20;99.90;;;;;;4954594;29;20054;-68
2022/10/20 04:05:50;;;;;;;12.05;6.80;;;;;;;;;;4954877;29;20043;-67
2022/10/20 04:08:16;;;;;;;10.25;6.72;;;7.10;99.90;;;;;;4954867;28;20482;-68
2022/10/20 04:10:41;;;;;;;11.13;6.05;;;7.20;99.90;;;;;;4954815;29;20047;-67
2022/10/20 04:13:07;;;;;;;14.00;7.32;;;7.20;99.90;;;;;;4937329;29;20482;-67
2022/10/20 04:15:32;;;;;;;11.80;6.80;;;7.10;99.90;;;;;;4937731;29;20043;-67
2022/10/20 04:17:58;;;;;;;9.45;5.95;;;7.10;99.90;;;;;;4954495;29;20038;-67
2022/10/20 04:20:23;;;;;;;11.43;6.97;;;7.20;99.90;;;;;;4937766;29;20106;-67
2022/10/20 04:22:49;;;;;;;11.32;7.45;;;7.20;99.90;;;;;;4954273;29;20043;-67
2022/10/20 04:25:14;;;;;;;13.60;8.18;;;7.20;99.90;;;;;;4937679;29;20126;-67
2022/10/20 04:27:41;;;;;;;10.07;7.38;;;7.10;99.90;;;;;;4937300;29;20039;-67
2022/10/20 04:30:08;;;;;;;11.93;7.13;;;7.20;99.90;;;;;;4937255;29;20031;-67
2022/10/20 04:32:33;;;;;;;11.65;7.85;;;7.30;99.90;;;;;;4954256;29;20047;-67
2022/10/20 04:34:59;;;;;;;14.02;6.93;;;7.30;99.90;;;;;;4937303;29;20051;-67
2022/10/20 04:37:24;;;;;;;14.05;7.50;;;7.20;99.90;;;;;;4954471;29;20047;-67
2022/10/20 04:39:50;;;;;;;11.35;7.25;;;7.10;99.90;;;;;;4937236;29;20050;-67
2022/10/20 04:42:16;;;;;;;15.20;8.35;;;7.10;99.90;;;;;;4954323;29;20043;-67
2022/10/20 04:44:43;;;;;;;15.90;7.10;;;;;;;;;;4954397;29;20121;-68
2022/10/20 04:47:08;;;;;;;11.45;7.43;;;7.10;99.90;;;;;;4938881;29;20129;-67
2022/10/20 04:49:34;;;;;;;12.23;7.97;;;7.10;99.90;;;;;;4940890;29;20074;-67
2022/10/20 04:51:59;;;;;;;13.77;8.55;;;7.10;99.90;;;;;;4940842;29;20078;-67
2022/10/20 04:54:25;;;;;;;12.40;8.82;;;7.10;99.90;;;;;;4940570;29;20059;-68
2022/10/20 04:56:51;;;;;;;14.15;8.15;;;;;;;;;;4925284;29;20513;-67
2022/10/20 04:59:17;;;;;;;12.90;7.93;;;7.10;99.90;;;;;;4940591;29;20058;-67
2022/10/20 05:01:42;;;;;;;13.55;8.05;;;7.20;99.90;;;;;;4940512;29;20047;-67
2022/10/20 05:04:09;;;;;;;16.15;8.13;;;7.30;99.90;;;;;;4957645;29;20039;-67
2022/10/20 05:06:34;;;;;;;12.48;8.88;;;7.20;99.90;;;;;;4958174;29;20047;-67
2022/10/20 05:09:03;;;;;;;15.00;8.27;;;7.30;99.90;;;;;;4957969;29;20045;-67
2022/10/20 05:11:30;;;;;;;16.02;8.80;;;7.10;99.90;;;;;;4957530;29;20054;-67
2022/10/20 05:13:56;;;;;;;12.93;9.43;;;7.20;99.90;;;;;;4957678;29;20393;-67
2022/10/20 05:16:22;;;;;;;16.85;9.55;;;7.10;99.90;;;;;;4940365;29;20047;-67
2022/10/20 05:18:51;;;;;;;13.98;8.95;;;6.90;99.90;;;;;;4940552;29;20043;-67
2022/10/20 05:21:19;;;;;;;14.27;8.18;;;7.10;99.90;;;;;;4940451;29;20494;-67
2022/10/20 05:23:45;;;;;;;18.83;8.90;;;7.00;99.90;;;;;;4957589;29;20491;-67
2022/10/20 05:26:13;;;;;;;14.93;9.15;;;7.00;99.90;;;;;;4957331;29;20078;-67
2022/10/20 05:28:42;;;;;;;13.35;8.45;;;7.10;99.90;;;;;;4940197;29;20043;-67
2022/10/20 05:31:08;;;;;;;18.08;9.85;;;7.10;99.90;;;;;;4940213;29;20051;-67
2022/10/20 05:33:35;;;;;;;13.50;9.85;;;7.10;99.90;;;;;;4956847;29;20489;-67
2022/10/20 05:36:06;;;;;;;13.30;8.80;;;;;;;;;;4940062;29;20076;-67
2022/10/20 05:38:31;;;;;;;20.42;9.88;;;7.10;99.90;;;;;;4957220;29;20050;-67
2022/10/20 05:41:06;;;;;;;18.00;9.27;;;7.10;99.90;;;;;;4957439;29;20039;-67
2022/10/20 05:43:31;;;;;;;16.47;9.77;;;7.10;99.90;;;;;;4956875;28;20047;-67
2022/10/20 05:45:57;;;;;;;19.63;9.68;;;7.20;99.90;;;;;;4957153;29;20485;-67
2022/10/20 05:48:22;;;;;;;17.20;8.40;;;7.10;99.90;;;;;;4940122;29;20572;-67
2022/10/20 05:50:48;;;;;;;14.20;8.40;;;7.20;99.90;;;;;;4923876;29;20035;-67
2022/10/20 05:53:13;;;;;;;14.27;9.73;;;7.20;99.90;;;;;;4939738;29;20122;-67
2022/10/20 05:55:39;;;;;;;16.13;9.85;;;6.90;99.90;;;;;;4956709;29;20142;-67
2022/10/20 05:58:04;;;;;;;18.45;11.10;;;6.90;99.90;;;;;;4939244;29;20122;-67
2022/10/20 06:00:40;;;;;;;15.05;10.88;;;;;;;;;;4939581;29;20079;-67
2022/10/20 06:03:05;;;;;;;15.00;10.45;;;6.90;99.90;;;;;;4926838;29;20051;-67
2022/10/20 06:05:31;;;;;;;16.30;10.38;;;6.80;99.90;;;;;;4956819;29;20035;-67
2022/10/20 06:07:56;;;;;;;12.02;7.30;;;7.00;99.90;;;;;;4956868;29;20027;-67
2022/10/20 06:10:23;;;;;;;22.95;10.18;;;7.10;99.90;;;;;;4956773;29;20047;-67
2022/10/20 06:12:49;;;;;;;19.73;10.77;;;6.80;99.90;;;;;;4939048;28;20549;-67
2022/10/20 06:15:14;;;;;;;17.23;11.20;;;7.10;99.90;;;;;;4956553;29;20111;-67
2022/10/20 06:17:40;;;;;;;20.48;11.43;;;;;;;;;;4938829;29;20047;-67
2022/10/20 06:20:06;;;;;;;15.25;10.02;;;7.00;99.90;;;;;;4939273;29;20047;-67
2022/10/20 06:22:32;;;;;;;16.90;11.68;;;7.10;99.90;;;;;;4939066;29;20055;-67
2022/10/20 06:24:58;;;;;;;17.38;11.07;;;;;;;;;;4939013;29;20395;-67
2022/10/20 06:27:23;;;;;;;17.58;10.98;;;;;;;;;;4956208;29;20098;-67
2022/10/20 06:29:49;;;;;;;16.58;10.75;;;7.10;99.90;;;;;;4938933;29;20130;-67
2022/10/20 06:32:17;;;;;;;15.63;11.20;;;7.30;99.90;;;;;;4956176;29;20050;-67
2022/10/20 06:34:43;;;;;;;16.42;11.10;;;7.10;99.90;;;;;;4938849;29;20047;-67
2022/10/20 06:37:09;;;;;;;17.33;12.32;;;7.10;99.90;;;;;;4956098;28;20038;-67
2022/10/20 06:39:35;;;;;;;18.33;12.00;;;7.00;99.90;;;;;;4958584;28;20413;-67
2022/10/20 06:42:02;;;;;;;14.10;10.32;;;;;;;;;;4955800;29;20043;-67
2022/10/20 06:44:28;;;;;;;15.77;11.38;;;7.10;99.90;;;;;;4938596;29;20580;-67
2022/10/20 06:46:53;;;;;;;16.92;11.52;;;7.20;99.90;;;;;;4956123;29;20157;-67
2022/10/20 06:49:19;;;;;;;21.13;12.50;;;7.30;99.90;;;;;;4955798;29;20039;-67
2022/10/20 06:51:45;;;;;;;17.98;11.63;;;7.30;99.90;;;;;;4938544;29;20146;-67
2022/10/20 06:54:11;;;;;;;19.63;13.23;;;7.30;99.90;;;;;;4938303;29;20459;-68
2022/10/20 06:56:38;;;;;;;19.23;11.63;;;;;;;;;;4938444;29;20058;-67
2022/10/20 06:59:04;;;;;;;15.45;11.45;;;7.40;99.90;;;;;;4938292;29;20054;-67
2022/10/20 07:01:32;;;;;;;17.45;11.80;;;7.30;99.90;;;;;;4938166;29;20051;-67
2022/10/20 07:03:59;;;;;;;15.70;12.55;;;;;;;;;;4955462;28;20132;-67
2022/10/20 07:06:32;;;;;;;16.98;11.27;;;7.30;99.90;;;;;;4955589;29;20454;-67
2022/10/20 07:08:58;;;;;;;18.65;12.10;;;7.50;99.90;;;;;;4937667;29;20082;-66
2022/10/20 07:11:26;;;;;;;16.05;11.05;;;7.30;99.90;;;;;;4937940;29;20043;-67
2022/10/20 07:13:52;;;;;;;16.55;9.60;;;7.50;99.90;;;;;;4955435;28;20039;-67
2022/10/20 07:16:23;;;;;;;17.35;11.38;;;7.50;99.90;;;;;;4922390;29;20113;-67
2022/10/20 07:18:49;;;;;;;17.27;10.75;;;7.60;99.90;;;;;;4960754;29;20051;-67
2022/10/20 07:21:17;;;;;;;17.85;11.40;;;7.80;99.90;;;;;;4939723;29;20051;-67
2022/10/20 07:23:43;;;;;;;14.35;10.50;;;;;;;;;;4937746;28;20425;-65
2022/10/20 07:26:14;;;;;;;22.83;12.20;;;7.80;99.90;;;;;;4953994;28;20039;-66
2022/10/20 07:28:42;;;;;;;18.67;11.85;;;7.50;99.90;;;;;;4935875;28;20423;-66
2022/10/20 07:31:13;;;;;;;15.90;10.30;;;;;;;;;;4953994;28;20096;-66
2022/10/20 07:33:39;;;;;;;14.82;10.88;;;7.90;99.90;;;;;;4953422;28;20040;-65
2022/10/20 07:36:34;;;;;;;16.08;11.00;;;7.80;99.90;;;;;;4954819;28;20045;-65
2022/10/20 07:39:03;;;;;;;18.13;11.63;;;8.00;99.90;;;;;;4946081;28;20051;-65
2022/10/20 07:41:29;;;;;;;15.40;11.25;;;;;;;;;;4953830;28;20126;-65
2022/10/20 07:43:55;;;;;;;21.02;12.45;;;8.10;99.90;;;;;;4921706;29;20122;-66
2022/10/20 07:46:21;;;;;;;17.58;11.32;;;8.20;99.90;;;;;;4937219;29;20039;-66
2022/10/20 07:48:47;;;;;;;17.48;10.95;;;8.20;99.90;;;;;;4936335;28;20506;-66
2022/10/20 07:51:18;;;;;;;16.40;11.20;;;8.20;99.90;;;;;;4921320;29;20114;-66
2022/10/20 07:53:44;;;;;;;19.20;11.13;;;;;;;;;;4936940;29;20408;-67
2022/10/20 07:56:10;;;;;;;14.85;11.02;;;8.40;99.90;;;;;;4953850;29;20054;-66
2022/10/20 07:58:36;;;;;;;16.00;10.88;;;8.50;99.90;;;;;;4936892;28;20047;-66
2022/10/20 08:01:02;;;;;;;15.57;10.88;;;8.60;99.90;;;;;;4954010;28;20035;-66
2022/10/20 08:03:28;;;;;;;16.02;10.23;;;8.60;99.90;;;;;;4953884;29;20063;-67
2022/10/20 08:05:53;;;;;;;15.43;10.55;;;8.80;99.90;;;;;;4953624;29;20035;-66
2022/10/20 08:08:19;;;;;;;16.60;10.57;;;;;;;;;;4936962;29;20126;-66
2022/10/20 08:10:45;;;;;;;16.15;10.18;;;8.70;99.90;;;;;;4953579;29;20123;-66
2022/10/20 08:13:10;;;;;;;17.83;11.75;;;8.70;99.90;;;;;;4933551;29;20047;-66
2022/10/20 08:15:36;;;;;;;15.90;10.93;;;;;;;;;;4954319;29;20491;-66
2022/10/20 08:18:02;;;;;;;13.50;9.55;;;8.70;99.90;;;;;;4920548;29;20573;-66
2022/10/20 08:20:28;;;;;;;14.18;10.80;;;8.90;99.90;;;;;;4937633;29;20049;-66
2022/10/20 08:22:54;;;;;;;12.68;9.38;;;;;;;;;;4957751;28;20043;-66
2022/10/20 08:25:19;;;;;;;12.90;9.90;;;9.10;99.90;;;;;;4957898;29;20036;-66
2022/10/20 08:27:45;;;;;;;13.07;8.80;;;9.30;99.90;;;;;;4957700;29;20039;-66
2022/10/20 08:30:11;;;;;;;17.23;10.88;;;;;;;;;;4957546;28;20047;-66
2022/10/20 08:32:37;;;;;;;14.35;9.95;;;;;;;;;;4957309;28;20396;-66
2022/10/20 08:35:03;;;;;;;15.43;8.73;;;;;;;;;;4940034;28;20126;-66
2022/10/20 08:37:30;;;;;;;10.32;7.50;;;9.70;99.90;;;;;;4923848;28;20055;-67
2022/10/20 08:39:55;;;;;;;13.60;9.75;;;10.10;99.90;;;;;;4957394;28;20038;-66
2022/10/20 08:42:21;;;;;;;13.93;9.50;;;10.30;99.90;;;;;;4922365;29;20040;-66
2022/10/20 08:44:47;;;;;;;16.48;9.32;;;10.70;99.90;;;;;;4923433;29;20070;-66
2022/10/20 08:47:22;;;;;;;13.13;8.80;;;;;;;;;;4956581;29;20034;-66
2022/10/20 08:49:48;;;;;;;11.85;7.93;;;;;;;;;;4951390;28;20050;-65
2022/10/20 08:52:14;;;;;;;9.82;8.05;;;11.30;99.90;;;;;;4938364;29;20039;-66
2022/10/20 08:54:40;;;;;;;10.20;6.50;;;11.50;99.90;;;;;;4955404;29;20052;-64
2022/10/20 08:57:26;;;;;;;10.98;8.13;;;;;;;;;;4939305;28;20116;-65
2022/10/20 08:59:53;;;;;;;11.82;8.55;;;11.40;99.90;;;;;;4956010;29;20520;-64
2022/10/20 09:02:20;;;;;;;12.40;8.23;;;;;;;;;;4955761;28;20047;-64
2022/10/20 09:04:46;;;;;;;11.20;7.72;;;;;;;;;;4956029;28;20035;-64
2022/10/20 09:07:32;;;;;;;10.50;7.80;;;11.40;99.90;;;;;;4940220;29;20637;-64
2022/10/20 09:10:30;;;;;;;10.13;7.72;;;11.30;99.90;;;;;;4939295;29;20549;-65
2022/10/20 09:12:56;;;;;;;11.23;8.38;;;11.00;99.90;;;;;;4930425;28;20055;-65
2022/10/20 09:15:22;;;;;;;10.82;7.85;;;10.90;99.90;;;;;;4956645;28;20047;-65
2022/10/20 09:17:55;;;;;;;12.75;8.27;;;10.70;99.90;;;;;;4956146;28;20043;-66
2022/10/20 09:20:26;;;;;;;12.00;7.82;;;10.90;99.90;;;;;;4939304;29;20047;-65
2022/10/20 09:22:52;;;;;;;12.15;7.82;;;;;;;;;;4937377;29;20051;-65
2022/10/20 09:25:22;;;;;;;11.02;7.82;;;10.60;99.90;;;;;;4929645;29;20126;-67
2022/10/20 09:27:49;;;;;;;12.80;8.18;;;10.50;99.90;;;;;;4955431;28;20045;-66
2022/10/20 09:30:30;;;;;;;11.48;8.23;;;10.80;99.90;;;;;;4938584;28;20438;-67
2022/10/20 09:32:56;;;;;;;10.63;8.27;;;;;;;;;;4955426;28;20053;-66
2022/10/20 09:35:30;;;;;;;11.60;8.57;;;10.70;99.90;;;;;;4936706;29;20130;-66
2022/10/20 09:38:02;;;;;;;10.90;7.72;;;;;;;;;;4930813;29;20070;-65
2022/10/20 09:40:28;;;;;;;11.27;7.50;;;11.10;99.90;;;;;;4927167;29;20039;-64
2022/10/20 09:43:01;;;;;;;9.85;7.82;;;12.20;99.90;;;;;;4955785;29;20046;-66
2022/10/20 09:45:32;;;;;;;9.38;7.13;;;13.40;99.90;;;;;;4939791;29;20039;-66
2022/10/20 09:48:14;;;;;;;10.50;7.85;;;13.90;99.90;;;;;;4939912;29;20467;-65
2022/10/20 09:50:40;;;;;;;8.90;7.10;;;;;;;;;;4939168;29;20074;-66
2022/10/20 09:53:17;;;;;;;14.45;7.40;;;14.30;99.90;;;;;;4956382;28;20043;-65
2022/10/20 09:55:48;;;;;;;9.60;6.82;;;14.40;99.90;;;;;;4935557;29;20425;-65
2022/10/20 09:58:31;;;;;;;9.95;6.70;;;14.50;99.90;;;;;;4939053;29;20478;-68
2022/10/20 10:01:11;;;;;;;10.68;7.00;;;14.60;99.90;;;;;;4940467;29;20047;-67
2022/10/20 10:03:47;;;;;;;8.98;6.03;;;14.40;99.90;;;;;;4960836;28;20043;-67
2022/10/20 10:06:26;;;;;;;9.13;6.53;;;14.10;99.90;;;;;;4942440;29;20397;-65
2022/10/20 10:08:51;;;;;;;9.13;6.70;;;13.70;99.90;;;;;;4931192;28;20043;-65
2022/10/20 10:11:19;;;;;;;10.70;7.28;;;13.60;99.90;;;;;;4957612;28;20043;-65
2022/10/20 10:13:47;;;;;;;12.30;7.13;;;13.50;99.90;;;;;;4939106;28;20046;-65
2022/10/20 10:16:19;;;;;;;10.55;7.38;;;13.30;99.90;;;;;;4955924;28;20057;-68
2022/10/20 10:18:58;;;;;;;8.13;6.63;;;13.30;99.90;;;;;;4957394;28;20457;-68
2022/10/20 10:21:24;;;;;;;10.43;6.90;;;;;;;;;;4956019;28;20433;-65
2022/10/20 10:23:59;;;;;;;11.48;6.90;;;13.30;99.90;;;;;;4953308;28;20043;-67
2022/10/20 10:26:38;;;;;;;11.15;6.75;;;13.30;99.90;;;;;;4934064;28;20421;-64
2022/10/20 10:29:14;;;;;;;10.02;6.50;;;13.30;99.90;;;;;;4938377;28;20160;-67
2022/10/20 10:31:49;;;;;;;9.02;6.35;;;13.40;99.90;;;;;;4937080;28;20086;-65
2022/10/20 10:34:14;;;;;;;11.75;7.63;;;13.40;99.90;;;;;;4938442;28;20564;-65
2022/10/20 10:36:40;;;;;;;11.65;6.93;;;13.30;99.90;;;;;;4937376;28;20047;-65
2022/10/20 10:39:11;;;;;;;10.75;7.18;;;13.50;99.90;;;;;;4955391;28;20031;-64
2022/10/20 10:41:55;;;;;;;10.20;6.95;;;13.40;99.90;;;;;;4955709;29;20168;-63
2022/10/20 10:44:47;;;;;;;10.75;7.15;;;13.30;99.90;;;;;;4945426;28;20418;-64
2022/10/20 10:47:50;;;;;;;9.63;6.28;;;13.30;99.90;;;;;;4955575;28;20457;-65
2022/10/20 10:50:37;;;;;;;11.10;7.13;;;13.20;99.90;;;;;;4948983;28;20058;-63
2022/10/20 10:53:15;;;;;;;11.38;7.13;;;13.30;99.90;;;;;;4933846;28;20046;-65
2022/10/20 10:55:43;;;;;;;11.32;7.00;;;13.20;99.90;;;;;;4954689;28;20043;-66
2022/10/20 10:58:30;;;;;;;10.88;7.10;;;13.20;99.90;;;;;;4938560;29;20379;-65
2022/10/20 11:01:18;;;;;;;10.13;7.57;;;13.10;99.90;;;;;;4955051;29;20395;-63
2022/10/20 11:03:59;;;;;;;12.80;7.95;;;13.00;99.90;;;;;;4937623;29;20063;-65
2022/10/20 11:06:48;;;;;;;11.38;7.70;;;12.90;99.90;;;;;;4949344;29;20494;-64
2022/10/20 11:09:23;;;;;;;11.38;7.32;;;12.90;99.90;;;;;;4954320;28;20039;-65
2022/10/20 11:12:40;;;;;;;9.05;6.95;;;12.80;99.90;;;;;;4937649;29;20050;-64
2022/10/20 11:15:30;;;;;;;10.70;7.45;;;12.80;99.90;;;;;;4955349;28;20045;-65
2022/10/20 11:18:08;;;;;;;11.65;7.80;;;12.80;99.90;;;;;;4954514;28;20406;-64
2022/10/20 11:21:04;;;;;;;10.18;7.07;;;12.80;99.90;;;;;;4932746;29;20035;-65
2022/10/20 11:23:53;;;;;;;10.35;7.80;;;12.80;99.90;;;;;;4936554;29;20051;-64
2022/10/20 11:26:25;;;;;;;12.30;7.40;;;12.70;99.90;;;;;;4951154;29;20165;-65
2022/10/20 11:28:54;;;;;;;13.32;8.52;;;12.70;99.90;;;;;;4955261;29;20054;-64
2022/10/20 11:31:43;;;;;;;12.40;8.88;;;12.60;99.90;;;;;;4937533;29;20494;-64
2022/10/20 11:34:14;;;;;;;11.65;7.28;;;12.60;99.90;;;;;;4952375;28;20465;-63
2022/10/20 11:37:12;;;;;;;10.52;7.13;;;12.70;99.90;;;;;;4954995;28;20046;-65
2022/10/20 11:39:46;;;;;;;12.55;8.20;;;12.80;99.90;;;;;;4953642;28;20039;-64
2022/10/20 11:42:18;;;;;;;9.45;7.03;;;12.80;99.90;;;;;;4954660;29;20097;-64
2022/10/20 11:44:46;;;;;;;13.55;7.60;;;12.80;99.90;;;;;;4954683;29;20039;-64
2022/10/20 11:47:16;;;;;;;13.82;7.78;;;12.90;99.90;;;;;;4937124;29;20234;-63
2022/10/20 11:49:43;;;;;;;12.48;7.68;;;12.80;99.90;;;;;;4936490;29;20054;-64
2022/10/20 11:52:26;;;;;;;11.80;8.38;;;12.80;99.90;;;;;;4954530;29;20504;-64
2022/10/20 11:55:18;;;;;;;10.13;8.02;;;12.80;99.90;;;;;;4930776;28;20066;-64
2022/10/20 11:58:09;;;;;;;10.80;7.90;;;12.70;99.90;;;;;;4954307;29;20058;-65
2022/10/20 12:01:00;;;;;;;13.30;8.05;;;12.80;99.90;;;;;;4954684;29;20375;-64
2022/10/20 12:03:50;;;;;;;13.95;8.02;;;12.80;99.90;;;;;;4950792;29;20059;-64
2022/10/20 12:06:43;;;;;;;11.15;8.23;;;12.80;99.90;;;;;;4937065;29;20134;-64
2022/10/20 12:09:19;;;;;;;12.40;7.93;;;12.90;99.90;;;;;;4937293;29;20089;-64
2022/10/20 12:12:02;;;;;;;10.90;8.77;;;13.00;99.90;;;;;;4954519;29;20047;-65
2022/10/20 12:14:41;;;;;;;12.20;8.85;;;12.80;99.90;;;;;;4952406;28;20053;-64
2022/10/20 12:17:26;;;;;;;17.25;9.52;;;12.70;99.90;;;;;;4954397;28;20039;-63
2022/10/20 12:20:20;;;;;;;13.20;9.85;;;12.70;99.90;;;;;;4949686;28;20051;-63
2022/10/20 12:22:48;;;;;;;14.40;9.30;;;12.50;99.90;;;;;;4948874;29;20521;-64
2022/10/20 12:25:26;;;;;;;11.40;8.93;;;12.70;99.90;;;;;;4936795;29;20098;-64
2022/10/20 12:28:19;;;;;;;12.07;9.38;;;12.50;99.90;;;;;;4928979;29;20402;-65
2022/10/20 12:30:54;;;;;;;14.25;9.35;;;12.60;99.90;;;;;;4936547;28;20043;-65
2022/10/20 12:33:36;;;;;;;15.85;9.27;;;12.50;99.90;;;;;;4936533;28;20082;-65
2022/10/20 12:36:17;;;;;;;13.00;9.85;;;12.50;99.90;;;;;;4935008;28;20097;-66
2022/10/20 12:39:06;;;;;;;11.18;9.48;;;12.50;99.90;;;;;;4936110;29;20557;-65
2022/10/20 12:41:36;;;;;;;16.58;10.13;;;12.40;99.90;;;;;;4935754;28;20446;-65
2022/10/20 12:44:06;;;;;;;12.57;9.50;;;12.60;99.90;;;;;;4953263;28;20353;-67
2022/10/20 12:46:35;;;;;;;12.60;9.77;;;12.50;99.90;;;;;;4953779;28;20125;-64
2022/10/20 12:49:06;;;;;;;15.52;10.82;;;12.40;99.90;;;;;;4953889;29;20039;-64
2022/10/20 12:51:37;;;;;;;15.77;9.93;;;12.50;99.90;;;;;;4936310;28;20044;-63
2022/10/20 12:54:13;;;;;;;15.65;11.20;;;11.90;99.90;;;;;;4934340;29;20050;-64
2022/10/20 12:56:40;;;;;;;15.40;10.70;;;12.40;99.90;;;;;;4953817;28;20093;-65
2022/10/20 12:59:08;;;;;;;15.00;10.20;;;12.40;99.90;;;;;;4936656;29;20074;-65
2022/10/20 13:02:25;;;;;;;14.23;11.40;;;12.30;99.90;;;;;;4938686;28;20598;-64
2022/10/20 13:05:06;;;;;;;15.93;10.27;;;12.30;99.90;;;;;;4909903;28;20057;-64
2022/10/20 13:07:47;;;;;;;21.30;12.48;;;12.40;99.90;;;;;;4937097;29;20047;-65
2022/10/20 13:10:35;;;;;;;18.77;11.20;;;12.20;99.90;;;;;;4940218;29;20039;-63
2022/10/20 13:13:00;;;;;;;13.65;10.38;;;12.20;99.90;;;;;;4939996;28;20046;-64
2022/10/20 13:15:35;;;;;;;16.27;11.95;;;12.20;99.90;;;;;;4953982;29;20047;-65